sensor_id;sensor_type;location;lat;lon;timestamp;pressure;altitude;pressure_sealevel;temperature;humidity
27425;BME280;15244;49.088;11.886;2023-02-11T00:04:55;97617.59;;;3.31;43.79
27425;BME280;15244;49.088;11.886;2023-02-11T00:10:02;97607.66;;;3.26;43.68
27425;BME280;15244;49.088;11.886;2023-02-11T00:15:14;97609.56;;;3.26;43.89
27425;BME280;15244;49.088;11.886;2023-02-11T00:20:15;97607.47;;;3.23;44.24
27425;BME280;15244;49.088;11.886;2023-02-11T00:25:33;97598.84;;;3.21;43.97
27425;BME280;15244;49.088;11.886;2023-02-11T00:30:40;97600.75;;;3.20;44.21
27425;BME280;15244;49.088;11.886;2023-02-11T00:35:42;97593.84;;;3.14;43.85
27425;BME280;15244;49.088;11.886;2023-02-11T00:40:49;97586.03;;;3.13;44.27
27425;BME280;15244;49.088;11.886;2023-02-11T00:46:01;97586.63;;;3.10;44.02
27425;BME280;15244;49.088;11.886;2023-02-11T00:51:07;97594.75;;;3.04;44.14
27425;BME280;15244;49.088;11.886;2023-02-11T00:56:16;97597.72;;;3.03;44.02
27425;BME280;15244;49.088;11.886;2023-02-11T01:01:23;97589.66;;;3.03;44.29
27425;BME280;15244;49.088;11.886;2023-02-11T01:06:28;97598.25;;;3.05;44.36
27425;BME280;15244;49.088;11.886;2023-02-11T01:11:29;97594.97;;;3.08;44.10
27425;BME280;15244;49.088;11.886;2023-02-11T01:16:33;97582.81;;;3.11;44.17
27425;BME280;15244;49.088;11.886;2023-02-11T01:21:49;97570.97;;;3.12;44.15
27425;BME280;15244;49.088;11.886;2023-02-11T01:26:55;97579.59;;;3.09;44.34
27425;BME280;15244;49.088;11.886;2023-02-11T01:32:04;97576.41;;;3.07;44.20
27425;BME280;15244;49.088;11.886;2023-02-11T01:37:13;97553.25;;;3.06;44.05
27425;BME280;15244;49.088;11.886;2023-02-11T01:42:24;97540.28;;;3.08;44.11
27425;BME280;15244;49.088;11.886;2023-02-11T01:47:30;97521.13;;;3.09;43.76
27425;BME280;15244;49.088;11.886;2023-02-11T01:52:35;97522.22;;;3.08;43.75
27425;BME280;15244;49.088;11.886;2023-02-11T01:57:45;97514.28;;;2.98;44.07
27425;BME280;15244;49.088;11.886;2023-02-11T02:08:15;97496.66;;;2.87;44.07
27425;BME280;15244;49.088;11.886;2023-02-11T02:13:24;97499.63;;;2.85;44.13
27425;BME280;15244;49.088;11.886;2023-02-11T02:23:54;97503.25;;;2.75;43.78
27425;BME280;15244;49.088;11.886;2023-02-11T02:35:01;97516.91;;;2.60;44.18
27425;BME280;15244;49.088;11.886;2023-02-11T02:40:19;97519.91;;;2.58;44.29
27425;BME280;15244;49.088;11.886;2023-02-11T02:45:26;97523.44;;;2.54;44.06
27425;BME280;15244;49.088;11.886;2023-02-11T02:50:36;97521.81;;;2.53;44.63
27425;BME280;15244;49.088;11.886;2023-02-11T02:56:10;97522.66;;;2.53;44.38
27425;BME280;15244;49.088;11.886;2023-02-11T03:01:42;97517.28;;;2.53;44.49
27425;BME280;15244;49.088;11.886;2023-02-11T03:07:18;97498.91;;;2.55;44.61
27425;BME280;15244;49.088;11.886;2023-02-11T03:12:22;97480.88;;;2.56;44.51
27425;BME280;15244;49.088;11.886;2023-02-11T03:17:37;97495.16;;;2.56;44.22
27425;BME280;15244;49.088;11.886;2023-02-11T03:28:21;97497.53;;;2.58;44.61
27425;BME280;15244;49.088;11.886;2023-02-11T03:33:44;97503.44;;;2.60;44.66
27425;BME280;15244;49.088;11.886;2023-02-11T03:38:54;97502.38;;;2.61;44.70
27425;BME280;15244;49.088;11.886;2023-02-11T03:44:05;97501.53;;;2.60;44.52
27425;BME280;15244;49.088;11.886;2023-02-11T03:49:12;97510.44;;;2.61;44.84
27425;BME280;15244;49.088;11.886;2023-02-11T03:54:28;97506.13;;;2.60;44.90
27425;BME280;15244;49.088;11.886;2023-02-11T03:59:30;97486.50;;;2.59;44.70
27425;BME280;15244;49.088;11.886;2023-02-11T04:04:34;97493.19;;;2.62;44.90
27425;BME280;15244;49.088;11.886;2023-02-11T04:09:41;97484.84;;;2.64;44.70
27425;BME280;15244;49.088;11.886;2023-02-11T04:14:43;97485.31;;;2.66;44.96
27425;BME280;15244;49.088;11.886;2023-02-11T04:19:44;97484.75;;;2.69;45.06
27425;BME280;15244;49.088;11.886;2023-02-11T04:24:53;97469.63;;;2.73;44.98
27425;BME280;15244;49.088;11.886;2023-02-11T04:29:57;97459.88;;;2.77;44.96
27425;BME280;15244;49.088;11.886;2023-02-11T04:35:06;97472.75;;;2.80;44.75
27425;BME280;15244;49.088;11.886;2023-02-11T04:40:20;97470.56;;;2.82;45.13
27425;BME280;15244;49.088;11.886;2023-02-11T04:45:23;97467.03;;;2.87;45.23
27425;BME280;15244;49.088;11.886;2023-02-11T04:50:27;97462.16;;;2.89;45.00
27425;BME280;15244;49.088;11.886;2023-02-11T04:55:29;97448.88;;;2.92;45.05
27425;BME280;15244;49.088;11.886;2023-02-11T05:00:33;97461.84;;;2.90;45.00
27425;BME280;15244;49.088;11.886;2023-02-11T05:05:40;97440.88;;;2.87;45.16
27425;BME280;15244;49.088;11.886;2023-02-11T05:10:45;97446.78;;;2.89;45.32
27425;BME280;15244;49.088;11.886;2023-02-11T05:15:56;97466.94;;;2.92;45.41
27425;BME280;15244;49.088;11.886;2023-02-11T05:21:05;97471.81;;;2.90;45.18
27425;BME280;15244;49.088;11.886;2023-02-11T05:26:08;97463.47;;;2.91;45.25
27425;BME280;15244;49.088;11.886;2023-02-11T05:31:17;97446.97;;;2.93;45.50
27425;BME280;15244;49.088;11.886;2023-02-11T05:36:21;97437.31;;;2.92;45.63
27425;BME280;15244;49.088;11.886;2023-02-11T05:41:23;97419.31;;;2.87;45.30
27425;BME280;15244;49.088;11.886;2023-02-11T05:46:27;97433.94;;;2.81;45.65
27425;BME280;15244;49.088;11.886;2023-02-11T05:51:31;97412.69;;;2.79;45.80
27425;BME280;15244;49.088;11.886;2023-02-11T05:56:37;97411.66;;;2.75;46.02
27425;BME280;15244;49.088;11.886;2023-02-11T06:01:39;97439.41;;;2.76;46.25
27425;BME280;15244;49.088;11.886;2023-02-11T06:06:43;97426.38;;;2.83;46.14
27425;BME280;15244;49.088;11.886;2023-02-11T06:11:44;97415.44;;;2.93;46.07
27425;BME280;15244;49.088;11.886;2023-02-11T06:16:52;97394.91;;;2.97;46.32
27425;BME280;15244;49.088;11.886;2023-02-11T06:21:57;97411.69;;;2.94;46.00
27425;BME280;15244;49.088;11.886;2023-02-11T06:27:03;97423.53;;;2.93;46.08
27425;BME280;15244;49.088;11.886;2023-02-11T06:32:12;97426.22;;;2.93;46.17
27425;BME280;15244;49.088;11.886;2023-02-11T06:37:34;97413.84;;;2.92;46.46
27425;BME280;15244;49.088;11.886;2023-02-11T06:42:40;97425.44;;;2.93;46.57
27425;BME280;15244;49.088;11.886;2023-02-11T06:47:44;97436.72;;;2.95;46.35
27425;BME280;15244;49.088;11.886;2023-02-11T06:52:47;97420.47;;;3.00;46.37
27425;BME280;15244;49.088;11.886;2023-02-11T06:57:48;97416.19;;;2.99;46.76
27425;BME280;15244;49.088;11.886;2023-02-11T07:02:54;97425.34;;;2.98;46.83
27425;BME280;15244;49.088;11.886;2023-02-11T07:08:00;97428.03;;;2.98;46.69
27425;BME280;15244;49.088;11.886;2023-02-11T07:13:06;97418.56;;;3.00;46.58
27425;BME280;15244;49.088;11.886;2023-02-11T07:18:07;97433.94;;;3.00;46.42
27425;BME280;15244;49.088;11.886;2023-02-11T07:23:09;97436.66;;;3.00;46.70
27425;BME280;15244;49.088;11.886;2023-02-11T07:28:11;97422.66;;;2.98;46.86
27425;BME280;15244;49.088;11.886;2023-02-11T07:33:20;97426.75;;;2.95;47.04
27425;BME280;15244;49.088;11.886;2023-02-11T07:38:26;97438.91;;;2.93;47.01
27425;BME280;15244;49.088;11.886;2023-02-11T07:43:34;97428.50;;;2.86;47.24
27425;BME280;15244;49.088;11.886;2023-02-11T07:48:36;97440.06;;;2.87;47.25
27425;BME280;15244;49.088;11.886;2023-02-11T07:53:38;97440.06;;;2.87;47.60
27425;BME280;15244;49.088;11.886;2023-02-11T07:58:42;97446.69;;;2.94;47.63
27425;BME280;15244;49.088;11.886;2023-02-11T08:03:56;97439.34;;;3.00;47.42
27425;BME280;15244;49.088;11.886;2023-02-11T08:09:05;97441.88;;;3.10;48.00
27425;BME280;15244;49.088;11.886;2023-02-11T08:14:10;97441.22;;;3.18;47.98
27425;BME280;15244;49.088;11.886;2023-02-11T08:19:17;97433.84;;;3.24;47.79
27425;BME280;15244;49.088;11.886;2023-02-11T08:24:22;97435.53;;;3.20;47.62
27425;BME280;15244;49.088;11.886;2023-02-11T08:29:23;97445.22;;;3.21;47.67
27425;BME280;15244;49.088;11.886;2023-02-11T08:34:37;97456.22;;;3.24;48.04
27425;BME280;15244;49.088;11.886;2023-02-11T08:39:39;97446.06;;;3.35;48.09
27425;BME280;15244;49.088;11.886;2023-02-11T08:44:44;97455.31;;;3.48;48.14
27425;BME280;15244;49.088;11.886;2023-02-11T08:49:51;97460.53;;;3.58;47.89
27425;BME280;15244;49.088;11.886;2023-02-11T08:54:55;97453.06;;;3.69;48.15
27425;BME280;15244;49.088;11.886;2023-02-11T09:00:05;97449.38;;;3.79;47.77
27425;BME280;15244;49.088;11.886;2023-02-11T09:05:07;97449.50;;;3.87;47.84
27425;BME280;15244;49.088;11.886;2023-02-11T09:10:08;97438.63;;;3.93;47.92
27425;BME280;15244;49.088;11.886;2023-02-11T09:15:10;97447.09;;;4.00;47.93
27425;BME280;15244;49.088;11.886;2023-02-11T09:20:13;97441.63;;;4.05;47.96
27425;BME280;15244;49.088;11.886;2023-02-11T09:25:17;97445.50;;;4.12;47.47
27425;BME280;15244;49.088;11.886;2023-02-11T09:30:27;97456.13;;;4.09;47.70
27425;BME280;15244;49.088;11.886;2023-02-11T09:35:32;97463.09;;;4.10;47.87
27425;BME280;15244;49.088;11.886;2023-02-11T09:40:41;97453.41;;;4.09;47.92
27425;BME280;15244;49.088;11.886;2023-02-11T09:45:48;97444.72;;;4.12;48.25
27425;BME280;15244;49.088;11.886;2023-02-11T09:50:58;97443.53;;;4.18;48.00
27425;BME280;15244;49.088;11.886;2023-02-11T09:56:08;97458.25;;;4.26;48.09
27425;BME280;15244;49.088;11.886;2023-02-11T10:01:33;97461.53;;;4.37;47.92
27425;BME280;15244;49.088;11.886;2023-02-11T10:06:53;97461.44;;;4.42;48.24
27425;BME280;15244;49.088;11.886;2023-02-11T10:23:04;97456.13;;;4.37;47.96
27425;BME280;15244;49.088;11.886;2023-02-11T10:28:19;97461.94;;;4.44;47.78
27425;BME280;15244;49.088;11.886;2023-02-11T10:33:26;97451.94;;;4.44;47.63
27425;BME280;15244;49.088;11.886;2023-02-11T10:38:31;97443.22;;;4.47;48.08
27425;BME280;15244;49.088;11.886;2023-02-11T10:43:43;97430.41;;;4.53;48.08
27425;BME280;15244;49.088;11.886;2023-02-11T10:48:53;97426.00;;;4.57;48.29
27425;BME280;15244;49.088;11.886;2023-02-11T10:59:32;97419.66;;;4.75;48.28
27425;BME280;15244;49.088;11.886;2023-02-11T11:04:39;97423.75;;;4.87;48.67
27425;BME280;15244;49.088;11.886;2023-02-11T11:15:20;97399.06;;;5.02;48.59
27425;BME280;15244;49.088;11.886;2023-02-11T11:20:28;97406.84;;;5.04;48.07
27425;BME280;15244;49.088;11.886;2023-02-11T11:25:45;97408.34;;;5.10;48.31
27425;BME280;15244;49.088;11.886;2023-02-11T11:31:16;97413.50;;;5.20;48.33
27425;BME280;15244;49.088;11.886;2023-02-11T11:36:21;97408.47;;;5.27;48.09
27425;BME280;15244;49.088;11.886;2023-02-11T11:41:32;97405.41;;;5.42;48.33
27425;BME280;15244;49.088;11.886;2023-02-11T11:46:37;97397.97;;;5.57;48.75
27425;BME280;15244;49.088;11.886;2023-02-11T11:51:50;97403.81;;;5.73;48.41
27425;BME280;15244;49.088;11.886;2023-02-11T11:57:10;97402.50;;;5.93;48.59
27425;BME280;15244;49.088;11.886;2023-02-11T12:08:28;97381.78;;;6.28;48.48
27425;BME280;15244;49.088;11.886;2023-02-11T12:19:18;97376.41;;;6.54;48.28
27425;BME280;15244;49.088;11.886;2023-02-11T12:30:12;97377.53;;;6.70;48.00
27425;BME280;15244;49.088;11.886;2023-02-11T12:35:34;97362.56;;;6.82;48.38
27425;BME280;15244;49.088;11.886;2023-02-11T12:40:44;97353.94;;;6.88;48.07
27425;BME280;15244;49.088;11.886;2023-02-11T12:56:40;97348.19;;;6.99;47.76
27425;BME280;15244;49.088;11.886;2023-02-11T13:01:43;97342.13;;;7.02;47.71
27425;BME280;15244;49.088;11.886;2023-02-11T13:06:55;97344.84;;;7.02;48.29
27425;BME280;15244;49.088;11.886;2023-02-11T13:12:02;97336.22;;;7.08;48.35
27425;BME280;15244;49.088;11.886;2023-02-11T13:17:51;97336.69;;;7.10;48.21
27425;BME280;15244;49.088;11.886;2023-02-11T13:23:15;97343.22;;;7.18;47.75
27425;BME280;15244;49.088;11.886;2023-02-11T13:28:34;97348.81;;;7.22;47.85
27425;BME280;15244;49.088;11.886;2023-02-11T13:33:41;97349.75;;;7.26;48.03
27425;BME280;15244;49.088;11.886;2023-02-11T13:39:03;97344.63;;;7.33;48.17
27425;BME280;15244;49.088;11.886;2023-02-11T13:49:25;97345.69;;;7.49;47.46
27425;BME280;15244;49.088;11.886;2023-02-11T13:54:36;97344.91;;;7.57;47.81
27425;BME280;15244;49.088;11.886;2023-02-11T13:59:43;97334.50;;;7.59;47.70
27425;BME280;15244;49.088;11.886;2023-02-11T14:15:45;97334.47;;;7.68;47.95
27425;BME280;15244;49.088;11.886;2023-02-11T14:21:09;97334.97;;;7.70;47.76
27425;BME280;15244;49.088;11.886;2023-02-11T14:31:25;97327.28;;;7.72;47.76
27425;BME280;15244;49.088;11.886;2023-02-11T14:42:00;97330.56;;;7.87;47.70
27425;BME280;15244;49.088;11.886;2023-02-11T14:47:05;97330.25;;;7.88;48.07
27425;BME280;15244;49.088;11.886;2023-02-11T14:52:26;97337.78;;;7.82;47.49
27425;BME280;15244;49.088;11.886;2023-02-11T14:57:28;97337.13;;;7.86;48.01
27425;BME280;15244;49.088;11.886;2023-02-11T15:02:39;97352.44;;;7.90;47.77
27425;BME280;15244;49.088;11.886;2023-02-11T15:07:53;97322.91;;;7.89;47.61
27425;BME280;15244;49.088;11.886;2023-02-11T15:12:58;97322.22;;;7.92;47.55
27425;BME280;15244;49.088;11.886;2023-02-11T15:18:04;97341.91;;;7.89;47.66
27425;BME280;15244;49.088;11.886;2023-02-11T15:23:10;97329.91;;;7.90;47.19
27425;BME280;15244;49.088;11.886;2023-02-11T15:28:24;97332.63;;;7.90;46.97
27425;BME280;15244;49.088;11.886;2023-02-11T15:33:29;97336.59;;;7.92;47.29
27425;BME280;15244;49.088;11.886;2023-02-11T15:38:32;97346.50;;;7.97;46.93
27425;BME280;15244;49.088;11.886;2023-02-11T15:48:49;97372.06;;;7.96;47.24
27425;BME280;15244;49.088;11.886;2023-02-11T15:53:56;97357.34;;;7.97;47.06
27425;BME280;15244;49.088;11.886;2023-02-11T15:59:38;97370.47;;;7.95;47.06
27425;BME280;15244;49.088;11.886;2023-02-11T16:04:48;97370.19;;;7.88;46.91
27425;BME280;15244;49.088;11.886;2023-02-11T16:09:58;97371.00;;;7.79;47.18
27425;BME280;15244;49.088;11.886;2023-02-11T16:15:26;97362.84;;;7.79;47.18
27425;BME280;15244;49.088;11.886;2023-02-11T16:20:38;97370.22;;;7.79;47.08
27425;BME280;15244;49.088;11.886;2023-02-11T16:25:52;97382.19;;;7.78;47.06
27425;BME280;15244;49.088;11.886;2023-02-11T16:30:58;97379.00;;;7.76;47.24
27425;BME280;15244;49.088;11.886;2023-02-11T16:36:14;97386.69;;;7.74;47.47
27425;BME280;15244;49.088;11.886;2023-02-11T16:41:17;97402.31;;;7.77;46.88
27425;BME280;15244;49.088;11.886;2023-02-11T16:46:21;97396.72;;;7.82;47.26
27425;BME280;15244;49.088;11.886;2023-02-11T16:51:25;97401.81;;;7.84;47.27
27425;BME280;15244;49.088;11.886;2023-02-11T16:56:27;97417.03;;;7.76;47.48
27425;BME280;15244;49.088;11.886;2023-02-11T17:01:36;97410.81;;;7.75;47.54
27425;BME280;15244;49.088;11.886;2023-02-11T17:06:43;97419.13;;;7.70;47.51
27425;BME280;15244;49.088;11.886;2023-02-11T17:11:48;97423.75;;;7.70;47.64
27425;BME280;15244;49.088;11.886;2023-02-11T17:16:55;97426.47;;;7.70;47.66
27425;BME280;15244;49.088;11.886;2023-02-11T17:22:11;97438.78;;;7.67;47.57
27425;BME280;15244;49.088;11.886;2023-02-11T17:27:15;97435.25;;;7.67;47.82
27425;BME280;15244;49.088;11.886;2023-02-11T17:32:19;97439.88;;;7.66;47.75
27425;BME280;15244;49.088;11.886;2023-02-11T17:37:39;97447.22;;;7.66;48.10
27425;BME280;15244;49.088;11.886;2023-02-11T17:42:41;97439.56;;;7.59;47.55
27425;BME280;15244;49.088;11.886;2023-02-11T17:47:45;97441.78;;;7.57;48.07
27425;BME280;15244;49.088;11.886;2023-02-11T17:52:49;97448.22;;;7.52;48.61
27425;BME280;15244;49.088;11.886;2023-02-11T17:57:53;97461.59;;;7.49;48.64
27425;BME280;15244;49.088;11.886;2023-02-11T18:03:02;97455.25;;;7.45;48.98
27425;BME280;15244;49.088;11.886;2023-02-11T18:08:07;97452.03;;;7.43;49.03
27425;BME280;15244;49.088;11.886;2023-02-11T18:13:18;97458.41;;;7.47;49.38
27425;BME280;15244;49.088;11.886;2023-02-11T18:18:20;97459.53;;;7.46;49.42
27425;BME280;15244;49.088;11.886;2023-02-11T18:23:21;97462.56;;;7.44;49.64
27425;BME280;15244;49.088;11.886;2023-02-11T18:28:37;97462.09;;;7.42;49.72
27425;BME280;15244;49.088;11.886;2023-02-11T18:33:41;97467.84;;;7.41;49.69
27425;BME280;15244;49.088;11.886;2023-02-11T18:38:50;97455.72;;;7.38;49.64
27425;BME280;15244;49.088;11.886;2023-02-11T18:43:58;97470.88;;;7.39;50.22
27425;BME280;15244;49.088;11.886;2023-02-11T18:49:08;97469.44;;;7.42;50.03
27425;BME280;15244;49.088;11.886;2023-02-11T18:54:15;97479.66;;;7.45;49.90
27425;BME280;15244;49.088;11.886;2023-02-11T18:59:28;97475.00;;;7.36;50.27
27425;BME280;15244;49.088;11.886;2023-02-11T19:04:38;97480.94;;;7.30;50.28
27425;BME280;15244;49.088;11.886;2023-02-11T19:09:41;97487.66;;;7.32;50.74
27425;BME280;15244;49.088;11.886;2023-02-11T19:14:49;97484.94;;;7.32;50.70
27425;BME280;15244;49.088;11.886;2023-02-11T19:19:51;97484.13;;;7.32;50.67
27425;BME280;15244;49.088;11.886;2023-02-11T19:24:56;97498.00;;;7.30;50.77
27425;BME280;15244;49.088;11.886;2023-02-11T19:30:00;97499.13;;;7.29;50.45
27425;BME280;15244;49.088;11.886;2023-02-11T19:35:02;97498.00;;;7.30;50.97
27425;BME280;15244;49.088;11.886;2023-02-11T19:40:09;97497.72;;;7.32;50.55
27425;BME280;15244;49.088;11.886;2023-02-11T19:45:14;97505.34;;;7.30;50.25
27425;BME280;15244;49.088;11.886;2023-02-11T19:50:29;97507.59;;;7.28;50.54
27425;BME280;15244;49.088;11.886;2023-02-11T19:55:36;97498.16;;;7.25;50.99
27425;BME280;15244;49.088;11.886;2023-02-11T20:00:40;97498.66;;;7.27;50.82
27425;BME280;15244;49.088;11.886;2023-02-11T20:05:45;97496.88;;;7.23;50.63
27425;BME280;15244;49.088;11.886;2023-02-11T20:10:50;97490.50;;;7.27;50.60
27425;BME280;15244;49.088;11.886;2023-02-11T20:16:02;97498.81;;;7.31;50.92
27425;BME280;15244;49.088;11.886;2023-02-11T20:21:08;97490.66;;;7.31;50.69
27425;BME280;15244;49.088;11.886;2023-02-11T20:26:16;97493.38;;;7.31;50.67
27425;BME280;15244;49.088;11.886;2023-02-11T20:31:24;97501.22;;;7.32;50.75
27425;BME280;15244;49.088;11.886;2023-02-11T20:36:31;97512.84;;;7.33;50.92
27425;BME280;15244;49.088;11.886;2023-02-11T20:41:36;97521.16;;;7.36;50.93
27425;BME280;15244;49.088;11.886;2023-02-11T20:46:46;97517.47;;;7.41;50.33
27425;BME280;15244;49.088;11.886;2023-02-11T20:51:53;97513.03;;;7.45;50.71
27425;BME280;15244;49.088;11.886;2023-02-11T20:56:57;97524.97;;;7.44;50.55
27425;BME280;15244;49.088;11.886;2023-02-11T21:02:02;97519.09;;;7.42;50.65
27425;BME280;15244;49.088;11.886;2023-02-11T21:07:08;97517.97;;;7.43;50.27
27425;BME280;15244;49.088;11.886;2023-02-11T21:12:09;97516.38;;;7.42;50.55
27425;BME280;15244;49.088;11.886;2023-02-11T21:17:15;97508.06;;;7.38;50.59
27425;BME280;15244;49.088;11.886;2023-02-11T21:22:24;97510.63;;;7.35;50.73
27425;BME280;15244;49.088;11.886;2023-02-11T21:27:30;97511.88;;;7.29;50.73
27425;BME280;15244;49.088;11.886;2023-02-11T21:32:35;97518.59;;;7.23;50.58
27425;BME280;15244;49.088;11.886;2023-02-11T21:37:40;97527.53;;;7.23;50.59
27425;BME280;15244;49.088;11.886;2023-02-11T21:42:44;97529.59;;;7.26;50.60
27425;BME280;15244;49.088;11.886;2023-02-11T21:47:50;97541.09;;;7.23;51.10
27425;BME280;15244;49.088;11.886;2023-02-11T21:52:55;97540.16;;;7.19;51.35
27425;BME280;15244;49.088;11.886;2023-02-11T21:57:58;97548.44;;;7.23;50.91
27425;BME280;15244;49.088;11.886;2023-02-11T22:03:07;97550.16;;;7.19;51.20
27425;BME280;15244;49.088;11.886;2023-02-11T22:08:20;97548.88;;;7.16;51.06
27425;BME280;15244;49.088;11.886;2023-02-11T22:13:32;97555.09;;;7.08;51.36
27425;BME280;15244;49.088;11.886;2023-02-11T22:18:40;97554.63;;;7.06;51.04
27425;BME280;15244;49.088;11.886;2023-02-11T22:23:46;97545.53;;;7.02;51.20
27425;BME280;15244;49.088;11.886;2023-02-11T22:28:50;97552.69;;;6.98;51.17
27425;BME280;15244;49.088;11.886;2023-02-11T22:33:55;97544.84;;;6.96;51.57
27425;BME280;15244;49.088;11.886;2023-02-11T22:39:03;97553.81;;;6.97;51.40
27425;BME280;15244;49.088;11.886;2023-02-11T22:44:05;97561.94;;;6.97;51.73
27425;BME280;15244;49.088;11.886;2023-02-11T22:49:28;97543.28;;;6.95;51.62
27425;BME280;15244;49.088;11.886;2023-02-11T22:54:35;97560.66;;;6.94;52.06
27425;BME280;15244;49.088;11.886;2023-02-11T22:59:47;97564.66;;;6.97;52.05
27425;BME280;15244;49.088;11.886;2023-02-11T23:04:49;97552.69;;;6.98;51.91
27425;BME280;15244;49.088;11.886;2023-02-11T23:09:53;97553.19;;;7.00;51.82
27425;BME280;15244;49.088;11.886;2023-02-11T23:15:06;97554.59;;;6.97;52.14
27425;BME280;15244;49.088;11.886;2023-02-11T23:20:09;97555.69;;;6.96;51.94
27425;BME280;15244;49.088;11.886;2023-02-11T23:25:12;97564.66;;;6.97;52.28
27425;BME280;15244;49.088;11.886;2023-02-11T23:30:15;97559.84;;;6.93;52.25
27425;BME280;15244;49.088;11.886;2023-02-11T23:35:21;97560.16;;;6.92;52.49
27425;BME280;15244;49.088;11.886;2023-02-11T23:40:32;97565.59;;;6.92;52.37
27425;BME280;15244;49.088;11.886;2023-02-11T23:45:39;97569.91;;;6.93;52.52
27425;BME280;15244;49.088;11.886;2023-02-11T23:50:48;97561.28;;;6.91;52.18
27425;BME280;15244;49.088;11.886;2023-02-11T23:55:53;97559.19;;;6.88;52.46
